nws-alerts: Checking more than four warning/county codes can delay the loading of your pages. You should use a cron job to get the data.
EllijayWeather Station Historical Data
Daily Summary for January 19, 2020 Units:  Both    English   Metric
Daily Weekly Monthly Yearly Custom
  High: Low: Average:
Temperature: 46 °F /  7.8 °C 26.2 °F /  -3.2 °C 37.5 °F /  3.1 °C
Dew Point: 45.9 °F /  7.7 °C 16 °F /  -8.9 °C 29.1 °F /  -1.6 °C
Humidity: 99% 50% 73%
Wind Speed: 11mph /  17.7km/h - 1.3mph /  2.1km/h
Wind Gust: 14mph /  22.5km/h - -
Wind- - West
Pressure: 30.32 in /  1026.6 hPa 30.11 in /  1019.5 hPa -
Precipitation: 0 in /  0 mm    
Historical Graphs
 
 
Tabular Data for January 19, 2020
Time Temperature Dew Point Pressure Wind Wind Speed Wind Gust Humidity Rainfall Rate (Hourly) solar
00:00 45.1 °F /  7.3 °C 44.6 °F /  7 °C 30.15in /  1020.9hPa Calm     98% 0.01in /  0.25mm meteobridge W/m2
00:05 45.1 °F /  7.3 °C 44.6 °F /  7 °C 30.15in /  1020.9hPa Calm     98% 0in /  0mm meteobridge W/m2
00:10 45.1 °F /  7.3 °C 44.6 °F /  7 °C 30.14in /  1020.5hPa Calm     98% 0in /  0mm meteobridge W/m2
00:15 45.1 °F /  7.3 °C 44.6 °F /  7 °C 30.14in /  1020.5hPa Calm     98% 0in /  0mm meteobridge W/m2
00:20 45.1 °F /  7.3 °C 44.6 °F /  7 °C 30.14in /  1020.5hPa Calm     98% 0in /  0mm meteobridge W/m2
00:25 45.3 °F /  7.4 °C 44.8 °F /  7.1 °C 30.14in /  1020.5hPa Calm     98% 0in /  0mm meteobridge W/m2
00:30 45.3 °F /  7.4 °C 44.8 °F /  7.1 °C 30.14in /  1020.5hPa Calm     98% 0in /  0mm meteobridge W/m2
00:35 45.1 °F /  7.3 °C 44.6 °F /  7 °C 30.14in /  1020.5hPa Calm     98% 0in /  0mm meteobridge W/m2
00:40 45.3 °F /  7.4 °C 44.8 °F /  7.1 °C 30.14in /  1020.5hPa Calm     98% 0in /  0mm meteobridge W/m2
00:45 45.3 °F /  7.4 °C 44.8 °F /  7.1 °C 30.14in /  1020.5hPa Calm     98% 0in /  0mm meteobridge W/m2
00:50 45.3 °F /  7.4 °C 44.8 °F /  7.1 °C 30.14in /  1020.5hPa Calm     98% 0in /  0mm meteobridge W/m2
00:55 45.3 °F /  7.4 °C 44.8 °F /  7.1 °C 30.13in /  1020.2hPa Calm     98% 0in /  0mm meteobridge W/m2
01:00 45.3 °F /  7.4 °C 44.8 °F /  7.1 °C 30.13in /  1020.2hPa Calm     98% 0in /  0mm meteobridge W/m2
01:05 45.3 °F /  7.4 °C 44.8 °F /  7.1 °C 30.13in /  1020.2hPa Calm     98% 0in /  0mm meteobridge W/m2
01:10 45.3 °F /  7.4 °C 44.8 °F /  7.1 °C 30.13in /  1020.2hPa Calm     98% 0in /  0mm meteobridge W/m2
01:15 45.3 °F /  7.4 °C 44.8 °F /  7.1 °C 30.13in /  1020.2hPa Calm     98% 0in /  0mm meteobridge W/m2
01:20 45.3 °F /  7.4 °C 44.8 °F /  7.1 °C 30.12in /  1019.9hPa Calm     98% 0in /  0mm meteobridge W/m2
01:25 45.3 °F /  7.4 °C 44.8 °F /  7.1 °C 30.12in /  1019.9hPa Calm     98% 0in /  0mm meteobridge W/m2
01:30 45.3 °F /  7.4 °C 44.8 °F /  7.1 °C 30.12in /  1019.9hPa Calm     98% 0in /  0mm meteobridge W/m2
01:35 45.3 °F /  7.4 °C 44.8 °F /  7.1 °C 30.12in /  1019.9hPa Calm     98% 0in /  0mm meteobridge W/m2
01:40 45.5 °F /  7.5 °C 45 °F /  7.2 °C 30.12in /  1019.9hPa Calm     98% 0in /  0mm meteobridge W/m2
01:45 45.5 °F /  7.5 °C 45 °F /  7.2 °C 30.11in /  1019.5hPa Calm     98% 0in /  0mm meteobridge W/m2
01:50 45.5 °F /  7.5 °C 45 °F /  7.2 °C 30.12in /  1019.9hPa Calm     98% 0in /  0mm meteobridge W/m2
01:55 45.7 °F /  7.6 °C 45.1 °F /  7.3 °C 30.12in /  1019.9hPa Calm     98% 0in /  0mm meteobridge W/m2
02:00 45.7 °F /  7.6 °C 45.1 °F /  7.3 °C 30.12in /  1019.9hPa Calm     98% 0in /  0mm meteobridge W/m2
02:05 45.7 °F /  7.6 °C 45.1 °F /  7.3 °C 30.12in /  1019.9hPa Calm     98% 0in /  0mm meteobridge W/m2
02:10 45.7 °F /  7.6 °C 45.1 °F /  7.3 °C 30.12in /  1019.9hPa Calm     98% 0in /  0mm meteobridge W/m2
02:15 45.7 °F /  7.6 °C 45.5 °F /  7.5 °C 30.12in /  1019.9hPa Calm     99% 0in /  0mm meteobridge W/m2
02:20 45.9 °F /  7.7 °C 45.7 °F /  7.6 °C 30.12in /  1019.9hPa Calm     99% 0in /  0mm meteobridge W/m2
02:25 45.9 °F /  7.7 °C 45.7 °F /  7.6 °C 30.12in /  1019.9hPa Calm     99% 0in /  0mm meteobridge W/m2
02:30 45.9 °F /  7.7 °C 45.7 °F /  7.6 °C 30.12in /  1019.9hPa Calm     99% 0in /  0mm meteobridge W/m2
02:35 46 °F /  7.8 °C 45.9 °F /  7.7 °C 30.12in /  1019.9hPa Calm   1mph /  1.6km/h 99% 0in /  0mm meteobridge W/m2
02:40 46 °F /  7.8 °C 45.9 °F /  7.7 °C 30.13in /  1020.2hPa Calm   1mph /  1.6km/h 99% 0in /  0mm meteobridge W/m2
02:45 46 °F /  7.8 °C 45.9 °F /  7.7 °C 30.13in /  1020.2hPa Calm     99% 0in /  0mm meteobridge W/m2
02:50 45.9 °F /  7.7 °C 45.3 °F /  7.4 °C 30.13in /  1020.2hPa Calm     98% 0in /  0mm meteobridge W/m2
02:55 45.7 °F /  7.6 °C 45.1 °F /  7.3 °C 30.12in /  1019.9hPa Calm     98% 0in /  0mm meteobridge W/m2
03:00 45.5 °F /  7.5 °C 45 °F /  7.2 °C 30.12in /  1019.9hPa Calm     98% 0in /  0mm meteobridge W/m2
03:05 45.3 °F /  7.4 °C 44.8 °F /  7.1 °C 30.12in /  1019.9hPa Calm   5mph /  8km/h 98% 0in /  0mm meteobridge W/m2
03:10 45.3 °F /  7.4 °C 44.8 °F /  7.1 °C 30.12in /  1019.9hPa Calm   1mph /  1.6km/h 98% 0in /  0mm meteobridge W/m2
03:15 45.1 °F /  7.3 °C 44.6 °F /  7 °C 30.12in /  1019.9hPa Calm     98% 0in /  0mm meteobridge W/m2
03:20 45 °F /  7.2 °C 44.4 °F /  6.9 °C 30.12in /  1019.9hPa Calm   5mph /  8km/h 98% 0in /  0mm meteobridge W/m2
03:25 45 °F /  7.2 °C 44.4 °F /  6.9 °C 30.12in /  1019.9hPa Calm     98% 0in /  0mm meteobridge W/m2
03:30 45 °F /  7.2 °C 44.4 °F /  6.9 °C 30.13in /  1020.2hPa Calm     98% 0in /  0mm meteobridge W/m2
03:35 45 °F /  7.2 °C 44.4 °F /  6.9 °C 30.12in /  1019.9hPa Calm   3mph /  4.8km/h 98% 0in /  0mm meteobridge W/m2
03:40 45 °F /  7.2 °C 44.4 °F /  6.9 °C 30.12in /  1019.9hPa Calm   1mph /  1.6km/h 98% 0in /  0mm meteobridge W/m2
03:45 45 °F /  7.2 °C 44.4 °F /  6.9 °C 30.12in /  1019.9hPa Calm   4mph /  6.4km/h 98% 0in /  0mm meteobridge W/m2
03:50 44.8 °F /  7.1 °C 44.2 °F /  6.8 °C 30.12in /  1019.9hPa Calm   2mph /  3.2km/h 98% 0in /  0mm meteobridge W/m2
03:55 44.8 °F /  7.1 °C 44.2 °F /  6.8 °C 30.12in /  1019.9hPa NNW 2mph /  3.2km/h 5mph /  8km/h 98% 0in /  0mm meteobridge W/m2
04:00 44.4 °F /  6.9 °C 43.7 °F /  6.5 °C 30.12in /  1019.9hPa NW 0.9mph /  1.4km/h 3mph /  4.8km/h 97% 0in /  0mm meteobridge W/m2
04:05 44.4 °F /  6.9 °C 43.7 °F /  6.5 °C 30.12in /  1019.9hPa WNW 0.9mph /  1.4km/h 3mph /  4.8km/h 97% 0in /  0mm meteobridge W/m2
04:10 44.4 °F /  6.9 °C 43.7 °F /  6.5 °C 30.12in /  1019.9hPa Calm   3mph /  4.8km/h 97% 0in /  0mm meteobridge W/m2
04:15 44.2 °F /  6.8 °C 43.5 °F /  6.4 °C 30.12in /  1019.9hPa Calm   4mph /  6.4km/h 97% 0in /  0mm meteobridge W/m2
04:20 44.1 °F /  6.7 °C 43.3 °F /  6.3 °C 30.12in /  1019.9hPa WNW 0.9mph /  1.4km/h 2mph /  3.2km/h 97% 0in /  0mm meteobridge W/m2
04:25 43.9 °F /  6.6 °C 43.2 °F /  6.2 °C 30.12in /  1019.9hPa Calm   2mph /  3.2km/h 97% 0in /  0mm meteobridge W/m2
04:30 43.3 °F /  6.3 °C 42.3 °F /  5.7 °C 30.12in /  1019.9hPa NW 2mph /  3.2km/h 2mph /  3.2km/h 96% 0in /  0mm meteobridge W/m2
04:35 43.2 °F /  6.2 °C 42.1 °F /  5.6 °C 30.12in /  1019.9hPa Calm   2mph /  3.2km/h 96% 0in /  0mm meteobridge W/m2
04:40 43 °F /  6.1 °C 41.9 °F /  5.5 °C 30.12in /  1019.9hPa Calm   1mph /  1.6km/h 96% 0in /  0mm meteobridge W/m2
04:45 42.6 °F /  5.9 °C 41.5 °F /  5.3 °C 30.13in /  1020.2hPa Calm   3mph /  4.8km/h 96% 0in /  0mm meteobridge W/m2
04:50 42.3 °F /  5.7 °C 41 °F /  5 °C 30.13in /  1020.2hPa Calm   3mph /  4.8km/h 95% 0in /  0mm meteobridge W/m2
04:55 42.1 °F /  5.6 °C 40.8 °F /  4.9 °C 30.13in /  1020.2hPa Calm     95% 0in /  0mm meteobridge W/m2
05:00 41.7 °F /  5.4 °C 40.5 °F /  4.7 °C 30.14in /  1020.5hPa Calm     95% 0in /  0mm meteobridge W/m2
05:05 41.5 °F /  5.3 °C 40.3 °F /  4.6 °C 30.14in /  1020.5hPa Calm   4mph /  6.4km/h 95% 0in /  0mm meteobridge W/m2
05:10 41.2 °F /  5.1 °C 39.6 °F /  4.2 °C 30.14in /  1020.5hPa NNE 0.9mph /  1.4km/h 2mph /  3.2km/h 94% 0in /  0mm meteobridge W/m2
05:15 40.6 °F /  4.8 °C 38.3 °F /  3.5 °C 30.14in /  1020.5hPa NNW 2.9mph /  4.7km/h 8mph /  12.9km/h 91% 0in /  0mm meteobridge W/m2
05:20 40.3 °F /  4.6 °C 37.6 °F /  3.1 °C 30.14in /  1020.5hPa SW 0.9mph /  1.4km/h 5mph /  8km/h 90% 0in /  0mm meteobridge W/m2
05:25 39.7 °F /  4.3 °C 36.5 °F /  2.5 °C 30.14in /  1020.5hPa Calm   4mph /  6.4km/h 88% 0in /  0mm meteobridge W/m2
05:30 39.4 °F /  4.1 °C 36.5 °F /  2.5 °C 30.14in /  1020.5hPa North 0.9mph /  1.4km/h 1mph /  1.6km/h 89% 0in /  0mm meteobridge W/m2
05:35 38.8 °F /  3.8 °C 35.2 °F /  1.8 °C 30.15in /  1020.9hPa Calm   2mph /  3.2km/h 87% 0in /  0mm meteobridge W/m2
05:40 38.7 °F /  3.7 °C 34.9 °F /  1.6 °C 30.15in /  1020.9hPa SW 2.9mph /  4.7km/h 7mph /  11.3km/h 86% 0in /  0mm meteobridge W/m2
05:45 38.3 °F /  3.5 °C 35.4 °F /  1.9 °C 30.14in /  1020.5hPa Calm   2mph /  3.2km/h 89% 0in /  0mm meteobridge W/m2
05:50 37.9 °F /  3.3 °C 35.1 °F /  1.7 °C 30.14in /  1020.5hPa Calm   2mph /  3.2km/h 89% 0in /  0mm meteobridge W/m2
05:55 37.8 °F /  3.2 °C 34.9 °F /  1.6 °C 30.14in /  1020.5hPa North 0.9mph /  1.4km/h 3mph /  4.8km/h 89% 0in /  0mm meteobridge W/m2
06:00 37.8 °F /  3.2 °C 35.6 °F /  2 °C 30.14in /  1020.5hPa Calm     92% 0in /  0mm meteobridge W/m2
06:05 37.4 °F /  3 °C 35.1 °F /  1.7 °C 30.15in /  1020.9hPa Calm   2mph /  3.2km/h 91% 0in /  0mm meteobridge W/m2
06:10 37.2 °F /  2.9 °C 34.9 °F /  1.6 °C 30.15in /  1020.9hPa Calm     91% 0in /  0mm meteobridge W/m2
06:15 37 °F /  2.8 °C 34.3 °F /  1.3 °C 30.16in /  1021.2hPa Calm   4mph /  6.4km/h 90% 0in /  0mm meteobridge W/m2
06:20 37 °F /  2.8 °C 34.9 °F /  1.6 °C 30.16in /  1021.2hPa Calm     92% 0in /  0mm meteobridge W/m2
06:25 36.7 °F /  2.6 °C 34.3 °F /  1.3 °C 30.15in /  1020.9hPa Calm   1mph /  1.6km/h 91% 0in /  0mm meteobridge W/m2
06:30 36.7 °F /  2.6 °C 33.8 °F /  1 °C 30.16in /  1021.2hPa NW 0.9mph /  1.4km/h 4mph /  6.4km/h 89% 0in /  0mm meteobridge W/m2
06:35 36.5 °F /  2.5 °C 33.8 °F /  1 °C 30.15in /  1020.9hPa North 2.9mph /  4.7km/h 3mph /  4.8km/h 90% 0in /  0mm meteobridge W/m2
06:40 36.3 °F /  2.4 °C 32.9 °F /  0.5 °C 30.16in /  1021.2hPa Calm   4mph /  6.4km/h 87% 0in /  0mm meteobridge W/m2
06:45 36.3 °F /  2.4 °C 32.9 °F /  0.5 °C 30.16in /  1021.2hPa Calm   2mph /  3.2km/h 87% 0in /  0mm meteobridge W/m2
06:50 36.1 °F /  2.3 °C 32.4 °F /  0.2 °C 30.16in /  1021.2hPa NNW 0.9mph /  1.4km/h 2mph /  3.2km/h 86% 0in /  0mm meteobridge W/m2
06:55 36.1 °F /  2.3 °C 32.4 °F /  0.2 °C 30.16in /  1021.2hPa Calm   2mph /  3.2km/h 86% 0in /  0mm meteobridge W/m2
07:00 36 °F /  2.2 °C 32.5 °F /  0.3 °C 30.16in /  1021.2hPa North 0.9mph /  1.4km/h 1mph /  1.6km/h 87% 0in /  0mm meteobridge W/m2
07:05 35.8 °F /  2.1 °C 32.4 °F /  0.2 °C 30.17in /  1021.6hPa Calm   1mph /  1.6km/h 87% 0in /  0mm meteobridge W/m2
07:10 35.8 °F /  2.1 °C 32 °F /  0 °C 30.17in /  1021.6hPa Calm   5mph /  8km/h 86% 0in /  0mm meteobridge W/m2
07:15 35.4 °F /  1.9 °C 31.6 °F /  -0.2 °C 30.17in /  1021.6hPa Calm   4mph /  6.4km/h 86% 0in /  0mm meteobridge W/m2
07:20 35.2 °F /  1.8 °C 31.8 °F /  -0.1 °C 30.17in /  1021.6hPa West 2mph /  3.2km/h 3mph /  4.8km/h 87% 0in /  0mm meteobridge W/m2
07:25 35.2 °F /  1.8 °C 32 °F /  0 °C 30.18in /  1021.9hPa Calm     88% 0in /  0mm meteobridge W/m2
07:30 35.1 °F /  1.7 °C 31.3 °F /  -0.4 °C 30.18in /  1021.9hPa NW 2mph /  3.2km/h 5mph /  8km/h 86% 0in /  0mm meteobridge W/m2
07:35 35.1 °F /  1.7 °C 31.8 °F /  -0.1 °C 30.18in /  1021.9hPa Calm   2mph /  3.2km/h 88% 0in /  0mm meteobridge W/m2
07:40 34.9 °F /  1.6 °C 31.6 °F /  -0.2 °C 30.18in /  1021.9hPa WNW 2mph /  3.2km/h 4mph /  6.4km/h 88% 0in /  0mm meteobridge W/m2
07:45 34.7 °F /  1.5 °C 31.5 °F /  -0.3 °C 30.18in /  1021.9hPa Calm   1mph /  1.6km/h 88% 0in /  0mm meteobridge W/m2
07:50 34.5 °F /  1.4 °C 31.1 °F /  -0.5 °C 30.18in /  1021.9hPa WNW 2mph /  3.2km/h 2mph /  3.2km/h 87% 0in /  0mm meteobridge W/m2
07:55 34.5 °F /  1.4 °C 31.1 °F /  -0.5 °C 30.19in /  1022.2hPa NW 2mph /  3.2km/h 4mph /  6.4km/h 87% 0in /  0mm meteobridge W/m2
08:00 34.3 °F /  1.3 °C 30 °F /  -1.1 °C 30.19in /  1022.2hPa Calm   6mph /  9.7km/h 84% 0in /  0mm meteobridge W/m2
08:05 34.3 °F /  1.3 °C 30 °F /  -1.1 °C 30.19in /  1022.2hPa North 2mph /  3.2km/h 4mph /  6.4km/h 84% 0in /  0mm meteobridge W/m2
08:10 34.3 °F /  1.3 °C 29.5 °F /  -1.4 °C 30.19in /  1022.2hPa North 0.9mph /  1.4km/h 5mph /  8km/h 82% 0in /  0mm meteobridge W/m2
08:15 34.2 °F /  1.2 °C 30.4 °F /  -0.9 °C 30.20in /  1022.6hPa Calm   1mph /  1.6km/h 86% 0in /  0mm meteobridge W/m2
08:20 34.2 °F /  1.2 °C 29.8 °F /  -1.2 °C 30.20in /  1022.6hPa NNW 2mph /  3.2km/h 2mph /  3.2km/h 84% 0in /  0mm meteobridge W/m2
08:25 34 °F /  1.1 °C 28.8 °F /  -1.8 °C 30.20in /  1022.6hPa Calm   4mph /  6.4km/h 81% 0in /  0mm meteobridge W/m2
08:30 34 °F /  1.1 °C 28.4 °F /  -2 °C 30.20in /  1022.6hPa Calm   4mph /  6.4km/h 80% 0in /  0mm meteobridge W/m2
08:35 34 °F /  1.1 °C 28.8 °F /  -1.8 °C 30.20in /  1022.6hPa NNE 4.9mph /  7.9km/h 5mph /  8km/h 81% 0in /  0mm meteobridge W/m2
08:40 34.2 °F /  1.2 °C 28 °F /  -2.2 °C 30.21in /  1022.9hPa NNW 0.9mph /  1.4km/h 6mph /  9.7km/h 78% 0in /  0mm meteobridge W/m2
08:45 34 °F /  1.1 °C 28.2 °F /  -2.1 °C 30.21in /  1022.9hPa Calm   3mph /  4.8km/h 79% 0in /  0mm meteobridge W/m2
08:50 34.2 °F /  1.2 °C 29.5 °F /  -1.4 °C 30.21in /  1022.9hPa Calm     83% 0in /  0mm meteobridge W/m2
08:55 34 °F /  1.1 °C 28.2 °F /  -2.1 °C 30.21in /  1022.9hPa WSW 2mph /  3.2km/h 6mph /  9.7km/h 79% 0in /  0mm meteobridge W/m2
09:00 34.2 °F /  1.2 °C 28.6 °F /  -1.9 °C 30.22in /  1023.2hPa NNE 2.9mph /  4.7km/h 5mph /  8km/h 80% 0in /  0mm meteobridge W/m2
09:05 34.2 °F /  1.2 °C 28 °F /  -2.2 °C 30.21in /  1022.9hPa NNW 0.9mph /  1.4km/h 3mph /  4.8km/h 78% 0in /  0mm meteobridge W/m2
09:10 34 °F /  1.1 °C 27.1 °F /  -2.7 °C 30.22in /  1023.2hPa Calm   3mph /  4.8km/h 76% 0in /  0mm meteobridge W/m2
09:15 34 °F /  1.1 °C 27.1 °F /  -2.7 °C 30.22in /  1023.2hPa NNW 0.9mph /  1.4km/h 5mph /  8km/h 76% 0in /  0mm meteobridge W/m2
09:20 34 °F /  1.1 °C 27.5 °F /  -2.5 °C 30.22in /  1023.2hPa SE 0.9mph /  1.4km/h 4mph /  6.4km/h 77% 0in /  0mm meteobridge W/m2
09:25 33.8 °F /  1 °C 27.3 °F /  -2.6 °C 30.22in /  1023.2hPa West 2mph /  3.2km/h 2mph /  3.2km/h 77% 0in /  0mm meteobridge W/m2
09:30 33.6 °F /  0.9 °C 26.8 °F /  -2.9 °C 30.22in /  1023.2hPa NNW 0.9mph /  1.4km/h 6mph /  9.7km/h 76% 0in /  0mm meteobridge W/m2
09:35 33.6 °F /  0.9 °C 27.1 °F /  -2.7 °C 30.22in /  1023.2hPa WNW 0.9mph /  1.4km/h 1mph /  1.6km/h 77% 0in /  0mm meteobridge W/m2
09:40 33.6 °F /  0.9 °C 26.6 °F /  -3 °C 30.22in /  1023.2hPa NW 4mph /  6.4km/h 7mph /  11.3km/h 75% 0in /  0mm meteobridge W/m2
09:45 33.6 °F /  0.9 °C 26.6 °F /  -3 °C 30.22in /  1023.2hPa Calm     75% 0in /  0mm meteobridge W/m2
09:50 34 °F /  1.1 °C 27 °F /  -2.8 °C 30.22in /  1023.2hPa Calm   2mph /  3.2km/h 75% 0in /  0mm meteobridge W/m2
09:55 34.2 °F /  1.2 °C 26.4 °F /  -3.1 °C 30.22in /  1023.2hPa WNW 2.9mph /  4.7km/h 6mph /  9.7km/h 73% 0in /  0mm meteobridge W/m2
10:00 34.5 °F /  1.4 °C 25.7 °F /  -3.5 °C 30.22in /  1023.2hPa Calm   7mph /  11.3km/h 70% 0in /  0mm meteobridge W/m2
10:05 35.1 °F /  1.7 °C 26.6 °F /  -3 °C 30.22in /  1023.2hPa Calm   5mph /  8km/h 71% 0in /  0mm meteobridge W/m2
10:10 35.4 °F /  1.9 °C 27 °F /  -2.8 °C 30.22in /  1023.2hPa NW 0.9mph /  1.4km/h 1mph /  1.6km/h 71% 0in /  0mm meteobridge W/m2
10:15 35.8 °F /  2.1 °C 26.6 °F /  -3 °C 30.22in /  1023.2hPa NNW 4mph /  6.4km/h 8mph /  12.9km/h 69% 0in /  0mm meteobridge W/m2
10:20 36.1 °F /  2.3 °C 26.2 °F /  -3.2 °C 30.22in /  1023.2hPa Calm   3mph /  4.8km/h 67% 0in /  0mm meteobridge W/m2
10:25 36.1 °F /  2.3 °C 24.8 °F /  -4 °C 30.22in /  1023.2hPa North 2.9mph /  4.7km/h 10mph /  16.1km/h 63% 0in /  0mm meteobridge W/m2
10:30 36.1 °F /  2.3 °C 25.2 °F /  -3.8 °C 30.22in /  1023.2hPa NW 6.9mph /  11.1km/h 9mph /  14.5km/h 64% 0in /  0mm meteobridge W/m2
10:35 36.1 °F /  2.3 °C 24.1 °F /  -4.4 °C 30.22in /  1023.2hPa SW 2mph /  3.2km/h 9mph /  14.5km/h 61% 0in /  0mm meteobridge W/m2
10:40 36.1 °F /  2.3 °C 22.8 °F /  -5.1 °C 30.23in /  1023.6hPa WNW 2mph /  3.2km/h 13mph /  20.9km/h 58% 0in /  0mm meteobridge W/m2
10:45 36.1 °F /  2.3 °C 22.5 °F /  -5.3 °C 30.22in /  1023.2hPa WNW 2mph /  3.2km/h 6mph /  9.7km/h 57% 0in /  0mm meteobridge W/m2
10:50 36.3 °F /  2.4 °C 23.7 °F /  -4.6 °C 30.22in /  1023.2hPa Calm   7mph /  11.3km/h 60% 0in /  0mm meteobridge W/m2
10:55 36.7 °F /  2.6 °C 25.7 °F /  -3.5 °C 30.22in /  1023.2hPa Calm   7mph /  11.3km/h 64% 0in /  0mm meteobridge W/m2
11:00 36.9 °F /  2.7 °C 26.2 °F /  -3.2 °C 30.23in /  1023.6hPa NNW 2.9mph /  4.7km/h 10mph /  16.1km/h 65% 0in /  0mm meteobridge W/m2
11:05 36.9 °F /  2.7 °C 26.6 °F /  -3 °C 30.23in /  1023.6hPa NNW 0.9mph /  1.4km/h 3mph /  4.8km/h 66% 0in /  0mm meteobridge W/m2
11:10 37 °F /  2.8 °C 26.8 °F /  -2.9 °C 30.23in /  1023.6hPa SSE 6mph /  9.7km/h 6mph /  9.7km/h 66% 0in /  0mm meteobridge W/m2
11:15 37.2 °F /  2.9 °C 26.2 °F /  -3.2 °C 30.23in /  1023.6hPa NNW 0.9mph /  1.4km/h 3mph /  4.8km/h 64% 0in /  0mm meteobridge W/m2
11:20 37.2 °F /  2.9 °C 27 °F /  -2.8 °C 30.23in /  1023.6hPa NW 4mph /  6.4km/h 5mph /  8km/h 66% 0in /  0mm meteobridge W/m2
11:25 37.2 °F /  2.9 °C 25.3 °F /  -3.7 °C 30.22in /  1023.2hPa NW 0.9mph /  1.4km/h 8mph /  12.9km/h 62% 0in /  0mm meteobridge W/m2
11:30 37.4 °F /  3 °C 25.9 °F /  -3.4 °C 30.22in /  1023.2hPa WNW 2mph /  3.2km/h 7mph /  11.3km/h 63% 0in /  0mm meteobridge W/m2
11:35 37.6 °F /  3.1 °C 26.1 °F /  -3.3 °C 30.22in /  1023.2hPa WNW 2.9mph /  4.7km/h 8mph /  12.9km/h 63% 0in /  0mm meteobridge W/m2
11:40 37.8 °F /  3.2 °C 27.1 °F /  -2.7 °C 30.22in /  1023.2hPa Calm   2mph /  3.2km/h 65% 0in /  0mm meteobridge W/m2
11:45 37.8 °F /  3.2 °C 26.6 °F /  -3 °C 30.22in /  1023.2hPa NW 2mph /  3.2km/h 3mph /  4.8km/h 64% 0in /  0mm meteobridge W/m2
11:50 37.8 °F /  3.2 °C 25.9 °F /  -3.4 °C 30.22in /  1023.2hPa NW 2.9mph /  4.7km/h 5mph /  8km/h 62% 0in /  0mm meteobridge W/m2
11:55 37.8 °F /  3.2 °C 25.9 °F /  -3.4 °C 30.22in /  1023.2hPa Calm   11mph /  17.7km/h 62% 0in /  0mm meteobridge W/m2
12:00 37.6 °F /  3.1 °C 27 °F /  -2.8 °C 30.21in /  1022.9hPa South 2mph /  3.2km/h 4mph /  6.4km/h 65% 0in /  0mm meteobridge W/m2
12:05 37.8 °F /  3.2 °C 26.2 °F /  -3.2 °C 30.21in /  1022.9hPa North 2mph /  3.2km/h 3mph /  4.8km/h 63% 0in /  0mm meteobridge W/m2
12:10 37.8 °F /  3.2 °C 25.5 °F /  -3.6 °C 30.21in /  1022.9hPa NW 0.9mph /  1.4km/h 9mph /  14.5km/h 61% 0in /  0mm meteobridge W/m2
12:15 37.9 °F /  3.3 °C 26.1 °F /  -3.3 °C 30.21in /  1022.9hPa NW 2.9mph /  4.7km/h 8mph /  12.9km/h 62% 0in /  0mm meteobridge W/m2
12:20 38.1 °F /  3.4 °C 25.5 °F /  -3.6 °C 30.21in /  1022.9hPa North 0.9mph /  1.4km/h 5mph /  8km/h 60% 0in /  0mm meteobridge W/m2
12:25 38.5 °F /  3.6 °C 26.2 °F /  -3.2 °C 30.21in /  1022.9hPa NNW 2mph /  3.2km/h 4mph /  6.4km/h 61% 0in /  0mm meteobridge W/m2
12:30 38.7 °F /  3.7 °C 25.5 °F /  -3.6 °C 30.21in /  1022.9hPa NW 0.9mph /  1.4km/h 8mph /  12.9km/h 59% 0in /  0mm meteobridge W/m2
12:35 38.7 °F /  3.7 °C 26.8 °F /  -2.9 °C 30.21in /  1022.9hPa West 0.9mph /  1.4km/h 6mph /  9.7km/h 62% 0in /  0mm meteobridge W/m2
12:40 38.8 °F /  3.8 °C 25.7 °F /  -3.5 °C 30.20in /  1022.6hPa WSW 4mph /  6.4km/h 8mph /  12.9km/h 59% 0in /  0mm meteobridge W/m2
12:45 38.8 °F /  3.8 °C 27 °F /  -2.8 °C 30.20in /  1022.6hPa WNW 4.9mph /  7.9km/h 5mph /  8km/h 62% 0in /  0mm meteobridge W/m2
12:50 39.2 °F /  4 °C 26.4 °F /  -3.1 °C 30.20in /  1022.6hPa North 4mph /  6.4km/h 8mph /  12.9km/h 60% 0in /  0mm meteobridge W/m2
12:55 39.4 °F /  4.1 °C 25.3 °F /  -3.7 °C 30.19in /  1022.2hPa NNW 2mph /  3.2km/h 5mph /  8km/h 57% 0in /  0mm meteobridge W/m2
13:00 39.7 °F /  4.3 °C 27 °F /  -2.8 °C 30.20in /  1022.6hPa NW 0.9mph /  1.4km/h 4mph /  6.4km/h 60% 0in /  0mm meteobridge W/m2
13:05 39.7 °F /  4.3 °C 26.2 °F /  -3.2 °C 30.19in /  1022.2hPa West 0.9mph /  1.4km/h 5mph /  8km/h 58% 0in /  0mm meteobridge W/m2
13:10 39.6 °F /  4.2 °C 26.1 °F /  -3.3 °C 30.19in /  1022.2hPa NNW 0.9mph /  1.4km/h 2mph /  3.2km/h 58% 0in /  0mm meteobridge W/m2
13:15 39.6 °F /  4.2 °C 25.2 °F /  -3.8 °C 30.19in /  1022.2hPa West 2mph /  3.2km/h 8mph /  12.9km/h 56% 0in /  0mm meteobridge W/m2
13:20 39.7 °F /  4.3 °C 26.6 °F /  -3 °C 30.18in /  1021.9hPa Calm   2mph /  3.2km/h 59% 0in /  0mm meteobridge W/m2
13:25 39.7 °F /  4.3 °C 25 °F /  -3.9 °C 30.18in /  1021.9hPa NNW 0.9mph /  1.4km/h 6mph /  9.7km/h 55% 0in /  0mm meteobridge W/m2
13:30 39.9 °F /  4.4 °C 24.6 °F /  -4.1 °C 30.18in /  1021.9hPa WNW 4.9mph /  7.9km/h 7mph /  11.3km/h 54% 0in /  0mm meteobridge W/m2
13:35 39.9 °F /  4.4 °C 24.3 °F /  -4.3 °C 30.18in /  1021.9hPa WNW 0.9mph /  1.4km/h 10mph /  16.1km/h 53% 0in /  0mm meteobridge W/m2
13:40 39.9 °F /  4.4 °C 25 °F /  -3.9 °C 30.18in /  1021.9hPa West 8.1mph /  13km/h 8mph /  12.9km/h 55% 0in /  0mm meteobridge W/m2
13:45 40.1 °F /  4.5 °C 24.3 °F /  -4.3 °C 30.18in /  1021.9hPa NW 2mph /  3.2km/h 7mph /  11.3km/h 53% 0in /  0mm meteobridge W/m2
13:50 40.3 °F /  4.6 °C 26.2 °F /  -3.2 °C 30.18in /  1021.9hPa NNW 2.9mph /  4.7km/h 4mph /  6.4km/h 57% 0in /  0mm meteobridge W/m2
13:55 40.3 °F /  4.6 °C 25.3 °F /  -3.7 °C 30.17in /  1021.6hPa NNW 0.9mph /  1.4km/h 3mph /  4.8km/h 55% 0in /  0mm meteobridge W/m2
14:00 40.5 °F /  4.7 °C 25.2 °F /  -3.8 °C 30.17in /  1021.6hPa SW 0.9mph /  1.4km/h 8mph /  12.9km/h 54% 0in /  0mm meteobridge W/m2
14:05 40.5 °F /  4.7 °C 24.3 °F /  -4.3 °C 30.17in /  1021.6hPa WNW 0.9mph /  1.4km/h 7mph /  11.3km/h 52% 0in /  0mm meteobridge W/m2
14:10 40.5 °F /  4.7 °C 25.5 °F /  -3.6 °C 30.17in /  1021.6hPa West 2mph /  3.2km/h 7mph /  11.3km/h 55% 0in /  0mm meteobridge W/m2
14:15 40.5 °F /  4.7 °C 25.5 °F /  -3.6 °C 30.17in /  1021.6hPa NW 0.9mph /  1.4km/h 2mph /  3.2km/h 55% 0in /  0mm meteobridge W/m2
14:20 40.6 °F /  4.8 °C 27 °F /  -2.8 °C 30.17in /  1021.6hPa Calm   4mph /  6.4km/h 58% 0in /  0mm meteobridge W/m2
14:25 40.6 °F /  4.8 °C 25.7 °F /  -3.5 °C 30.17in /  1021.6hPa NNE 0.9mph /  1.4km/h 4mph /  6.4km/h 55% 0in /  0mm meteobridge W/m2
14:30 40.8 °F /  4.9 °C 25.9 °F /  -3.4 °C 30.17in /  1021.6hPa North 2mph /  3.2km/h 4mph /  6.4km/h 55% 0in /  0mm meteobridge W/m2
14:35 40.8 °F /  4.9 °C 25.9 °F /  -3.4 °C 30.17in /  1021.6hPa North 4.9mph /  7.9km/h 6mph /  9.7km/h 55% 0in /  0mm meteobridge W/m2
14:40 41.2 °F /  5.1 °C 26.2 °F /  -3.2 °C 30.17in /  1021.6hPa Calm   2mph /  3.2km/h 55% 0in /  0mm meteobridge W/m2
14:45 41.2 °F /  5.1 °C 24.8 °F /  -4 °C 30.17in /  1021.6hPa Calm   2mph /  3.2km/h 52% 0in /  0mm meteobridge W/m2
14:50 41.4 °F /  5.2 °C 25 °F /  -3.9 °C 30.17in /  1021.6hPa NW 2mph /  3.2km/h 4mph /  6.4km/h 52% 0in /  0mm meteobridge W/m2
14:55 41.2 °F /  5.1 °C 24.4 °F /  -4.2 °C 30.17in /  1021.6hPa NW 6mph /  9.7km/h 8mph /  12.9km/h 51% 0in /  0mm meteobridge W/m2
15:00 41 °F /  5 °C 24.8 °F /  -4 °C 30.17in /  1021.6hPa NW 0.9mph /  1.4km/h 6mph /  9.7km/h 52% 0in /  0mm meteobridge W/m2
15:05 40.8 °F /  4.9 °C 25.5 °F /  -3.6 °C 30.17in /  1021.6hPa Calm   3mph /  4.8km/h 54% 0in /  0mm meteobridge W/m2
15:10 40.8 °F /  4.9 °C 25 °F /  -3.9 °C 30.18in /  1021.9hPa Calm   3mph /  4.8km/h 53% 0in /  0mm meteobridge W/m2
15:15 40.6 °F /  4.8 °C 23.5 °F /  -4.7 °C 30.18in /  1021.9hPa West 2.9mph /  4.7km/h 11mph /  17.7km/h 50% 0in /  0mm meteobridge W/m2
15:20 40.6 °F /  4.8 °C 24.4 °F /  -4.2 °C 30.18in /  1021.9hPa Calm   3mph /  4.8km/h 52% 0in /  0mm meteobridge W/m2
15:25 40.6 °F /  4.8 °C 24.4 °F /  -4.2 °C 30.18in /  1021.9hPa WNW 2mph /  3.2km/h 9mph /  14.5km/h 52% 0in /  0mm meteobridge W/m2
15:30 40.6 °F /  4.8 °C 23.9 °F /  -4.5 °C 30.18in /  1021.9hPa Calm   6mph /  9.7km/h 51% 0in /  0mm meteobridge W/m2
15:35 40.5 °F /  4.7 °C 24.3 °F /  -4.3 °C 30.18in /  1021.9hPa NW 2mph /  3.2km/h 8mph /  12.9km/h 52% 0in /  0mm meteobridge W/m2
15:40 40.3 °F /  4.6 °C 24.4 °F /  -4.2 °C 30.18in /  1021.9hPa WNW 0.9mph /  1.4km/h 3mph /  4.8km/h 53% 0in /  0mm meteobridge W/m2
15:45 40.3 °F /  4.6 °C 25 °F /  -3.9 °C 30.18in /  1021.9hPa WNW 4.9mph /  7.9km/h 10mph /  16.1km/h 54% 0in /  0mm meteobridge W/m2
15:50 39.9 °F /  4.4 °C 23.2 °F /  -4.9 °C 30.18in /  1021.9hPa Calm   8mph /  12.9km/h 51% 0in /  0mm meteobridge W/m2
15:55 39.7 °F /  4.3 °C 24.1 °F /  -4.4 °C 30.18in /  1021.9hPa WSW 2mph /  3.2km/h 6mph /  9.7km/h 53% 0in /  0mm meteobridge W/m2
16:00 39.6 °F /  4.2 °C 23.4 °F /  -4.8 °C 30.18in /  1021.9hPa Calm   14mph /  22.5km/h 52% 0in /  0mm meteobridge W/m2
16:05 39.4 °F /  4.1 °C 23.2 °F /  -4.9 °C 30.19in /  1022.2hPa NE 0.9mph /  1.4km/h 7mph /  11.3km/h 52% 0in /  0mm meteobridge W/m2
16:10 39.4 °F /  4.1 °C 24.6 °F /  -4.1 °C 30.19in /  1022.2hPa SW 2mph /  3.2km/h 11mph /  17.7km/h 55% 0in /  0mm meteobridge W/m2
16:15 39.2 °F /  4 °C 23.5 °F /  -4.7 °C 30.19in /  1022.2hPa WNW 4mph /  6.4km/h 8mph /  12.9km/h 53% 0in /  0mm meteobridge W/m2
16:20 39 °F /  3.9 °C 23.7 °F /  -4.6 °C 30.19in /  1022.2hPa NE 0.9mph /  1.4km/h 3mph /  4.8km/h 54% 0in /  0mm meteobridge W/m2
16:25 39 °F /  3.9 °C 23.4 °F /  -4.8 °C 30.20in /  1022.6hPa NNE 4mph /  6.4km/h 7mph /  11.3km/h 53% 0in /  0mm meteobridge W/m2
16:30 39 °F /  3.9 °C 24.3 °F /  -4.3 °C 30.20in /  1022.6hPa NW 2mph /  3.2km/h 9mph /  14.5km/h 55% 0in /  0mm meteobridge W/m2
16:35 39 °F /  3.9 °C 23.7 °F /  -4.6 °C 30.20in /  1022.6hPa Calm   4mph /  6.4km/h 54% 0in /  0mm meteobridge W/m2
16:40 39 °F /  3.9 °C 23.7 °F /  -4.6 °C 30.21in /  1022.9hPa NW 2mph /  3.2km/h 4mph /  6.4km/h 54% 0in /  0mm meteobridge W/m2
16:45 38.8 °F /  3.8 °C 23.2 °F /  -4.9 °C 30.21in /  1022.9hPa SSE 4mph /  6.4km/h 6mph /  9.7km/h 53% 0in /  0mm meteobridge W/m2
16:50 38.8 °F /  3.8 °C 24.4 °F /  -4.2 °C 30.20in /  1022.6hPa Calm   2mph /  3.2km/h 56% 0in /  0mm meteobridge W/m2
16:55 38.7 °F /  3.7 °C 24.3 °F /  -4.3 °C 30.21in /  1022.9hPa North 2.9mph /  4.7km/h 3mph /  4.8km/h 56% 0in /  0mm meteobridge W/m2
17:00 38.5 °F /  3.6 °C 24.1 °F /  -4.4 °C 30.21in /  1022.9hPa West 2mph /  3.2km/h 6mph /  9.7km/h 56% 0in /  0mm meteobridge W/m2
17:05 38.1 °F /  3.4 °C 23.9 °F /  -4.5 °C 30.21in /  1022.9hPa NNW 2mph /  3.2km/h 7mph /  11.3km/h 56% 0in /  0mm meteobridge W/m2
17:10 38.1 °F /  3.4 °C 23.9 °F /  -4.5 °C 30.21in /  1022.9hPa NNW 2mph /  3.2km/h 9mph /  14.5km/h 56% 0in /  0mm meteobridge W/m2
17:15 37.9 °F /  3.3 °C 24.1 °F /  -4.4 °C 30.22in /  1023.2hPa NW 2mph /  3.2km/h 3mph /  4.8km/h 57% 0in /  0mm meteobridge W/m2
17:20 37.8 °F /  3.2 °C 23.5 °F /  -4.7 °C 30.21in /  1022.9hPa WNW 2mph /  3.2km/h 5mph /  8km/h 56% 0in /  0mm meteobridge W/m2
17:25 37.6 °F /  3.1 °C 23.4 °F /  -4.8 °C 30.22in /  1023.2hPa North 4.9mph /  7.9km/h 9mph /  14.5km/h 56% 0in /  0mm meteobridge W/m2
17:30 37.4 °F /  3 °C 23.2 °F /  -4.9 °C 30.22in /  1023.2hPa North 0.9mph /  1.4km/h 6mph /  9.7km/h 56% 0in /  0mm meteobridge W/m2
17:35 37.2 °F /  2.9 °C 23 °F /  -5 °C 30.22in /  1023.2hPa North 4.9mph /  7.9km/h 5mph /  8km/h 56% 0in /  0mm meteobridge W/m2
17:40 37.2 °F /  2.9 °C 23 °F /  -5 °C 30.23in /  1023.6hPa Calm     56% 0in /  0mm meteobridge W/m2
17:45 37 °F /  2.8 °C 23.2 °F /  -4.9 °C 30.23in /  1023.6hPa North 2mph /  3.2km/h 3mph /  4.8km/h 57% 0in /  0mm meteobridge W/m2
17:50 36.9 °F /  2.7 °C 23 °F /  -5 °C 30.23in /  1023.6hPa West 0.9mph /  1.4km/h 3mph /  4.8km/h 57% 0in /  0mm meteobridge W/m2
17:55 36.7 °F /  2.6 °C 22.8 °F /  -5.1 °C 30.23in /  1023.6hPa North 2mph /  3.2km/h 4mph /  6.4km/h 57% 0in /  0mm meteobridge W/m2
18:00 36.5 °F /  2.5 °C 23.9 °F /  -4.5 °C 30.24in /  1023.9hPa NW 0.9mph /  1.4km/h 4mph /  6.4km/h 60% 0in /  0mm meteobridge W/m2
18:05 36.3 °F /  2.4 °C 23 °F /  -5 °C 30.23in /  1023.6hPa Calm     58% 0in /  0mm meteobridge W/m2
18:10 36.1 °F /  2.3 °C 22.8 °F /  -5.1 °C 30.24in /  1023.9hPa NNW 2.9mph /  4.7km/h 6mph /  9.7km/h 58% 0in /  0mm meteobridge W/m2
18:15 36 °F /  2.2 °C 23 °F /  -5 °C 30.24in /  1023.9hPa NW 6.9mph /  11.1km/h 7mph /  11.3km/h 59% 0in /  0mm meteobridge W/m2
18:20 35.8 °F /  2.1 °C 22.8 °F /  -5.1 °C 30.24in /  1023.9hPa Calm   6mph /  9.7km/h 59% 0in /  0mm meteobridge W/m2
18:25 35.8 °F /  2.1 °C 22.5 °F /  -5.3 °C 30.24in /  1023.9hPa NW 0.9mph /  1.4km/h 7mph /  11.3km/h 58% 0in /  0mm meteobridge W/m2
18:30 35.4 °F /  1.9 °C 22.5 °F /  -5.3 °C 30.25in /  1024.3hPa Calm   3mph /  4.8km/h 59% 0in /  0mm meteobridge W/m2
18:35 35.4 °F /  1.9 °C 22.5 °F /  -5.3 °C 30.24in /  1023.9hPa Calm   4mph /  6.4km/h 59% 0in /  0mm meteobridge W/m2
18:40 35.2 °F /  1.8 °C 21.9 °F /  -5.6 °C 30.25in /  1024.3hPa West 2mph /  3.2km/h 10mph /  16.1km/h 58% 0in /  0mm meteobridge W/m2
18:45 35.1 °F /  1.7 °C 21.7 °F /  -5.7 °C 30.25in /  1024.3hPa Calm   5mph /  8km/h 58% 0in /  0mm meteobridge W/m2
18:50 34.9 °F /  1.6 °C 21.6 °F /  -5.8 °C 30.25in /  1024.3hPa WSW 4mph /  6.4km/h 5mph /  8km/h 58% 0in /  0mm meteobridge W/m2
18:55 34.7 °F /  1.5 °C 21.4 °F /  -5.9 °C 30.25in /  1024.3hPa NW 6.9mph /  11.1km/h 14mph /  22.5km/h 58% 0in /  0mm meteobridge W/m2
19:00 34.5 °F /  1.4 °C 21.7 °F /  -5.7 °C 30.25in /  1024.3hPa SW 2.9mph /  4.7km/h 7mph /  11.3km/h 59% 0in /  0mm meteobridge W/m2
19:05 34.3 °F /  1.3 °C 21.6 °F /  -5.8 °C 30.25in /  1024.3hPa Calm   5mph /  8km/h 59% 0in /  0mm meteobridge W/m2
19:10 34.2 °F /  1.2 °C 21.4 °F /  -5.9 °C 30.26in /  1024.6hPa NNW 0.9mph /  1.4km/h 6mph /  9.7km/h 59% 0in /  0mm meteobridge W/m2
19:15 34.2 °F /  1.2 °C 21.4 °F /  -5.9 °C 30.26in /  1024.6hPa ESE 2mph /  3.2km/h 7mph /  11.3km/h 59% 0in /  0mm meteobridge W/m2
19:20 34 °F /  1.1 °C 21.2 °F /  -6 °C 30.26in /  1024.6hPa WNW 0.9mph /  1.4km/h 5mph /  8km/h 59% 0in /  0mm meteobridge W/m2
19:25 33.6 °F /  0.9 °C 21.2 °F /  -6 °C 30.26in /  1024.6hPa North 0.9mph /  1.4km/h 4mph /  6.4km/h 60% 0in /  0mm meteobridge W/m2
19:30 33.6 °F /  0.9 °C 21.6 °F /  -5.8 °C 30.27in /  1024.9hPa WNW 0.9mph /  1.4km/h 3mph /  4.8km/h 61% 0in /  0mm meteobridge W/m2
19:35 33.4 °F /  0.8 °C 21 °F /  -6.1 °C 30.27in /  1024.9hPa North 2mph /  3.2km/h 4mph /  6.4km/h 60% 0in /  0mm meteobridge W/m2
19:40 33.3 °F /  0.7 °C 21.7 °F /  -5.7 °C 30.27in /  1024.9hPa Calm   1mph /  1.6km/h 62% 0in /  0mm meteobridge W/m2
19:45 33.1 °F /  0.6 °C 21.6 °F /  -5.8 °C 30.27in /  1024.9hPa Calm   5mph /  8km/h 62% 0in /  0mm meteobridge W/m2
19:50 32.9 °F /  0.5 °C 21.4 °F /  -5.9 °C 30.27in /  1024.9hPa North 0.9mph /  1.4km/h 6mph /  9.7km/h 62% 0in /  0mm meteobridge W/m2
19:55 32.7 °F /  0.4 °C 21.6 °F /  -5.8 °C 30.27in /  1024.9hPa WSW 2.9mph /  4.7km/h 4mph /  6.4km/h 63% 0in /  0mm meteobridge W/m2
20:00 32.5 °F /  0.3 °C 21 °F /  -6.1 °C 30.28in /  1025.3hPa NW 2mph /  3.2km/h 8mph /  12.9km/h 62% 0in /  0mm meteobridge W/m2
20:05 32.5 °F /  0.3 °C 21.4 °F /  -5.9 °C 30.28in /  1025.3hPa Calm   1mph /  1.6km/h 63% 0in /  0mm meteobridge W/m2
20:10 32.2 °F /  0.1 °C 20.7 °F /  -6.3 °C 30.28in /  1025.3hPa WNW 2mph /  3.2km/h 2mph /  3.2km/h 62% 0in /  0mm meteobridge W/m2
20:15 32.2 °F /  0.1 °C 20.7 °F /  -6.3 °C 30.29in /  1025.6hPa North 2.9mph /  4.7km/h 14mph /  22.5km/h 62% 0in /  0mm meteobridge W/m2
20:20 31.8 °F /  -0.1 °C 20.3 °F /  -6.5 °C 30.28in /  1025.3hPa WNW 6mph /  9.7km/h 12mph /  19.3km/h 62% 0in /  0mm meteobridge W/m2
20:25 31.6 °F /  -0.2 °C 20.5 °F /  -6.4 °C 30.29in /  1025.6hPa West 6mph /  9.7km/h 6mph /  9.7km/h 63% 0in /  0mm meteobridge W/m2
20:30 31.6 °F /  -0.2 °C 20.5 °F /  -6.4 °C 30.29in /  1025.6hPa ENE 0.9mph /  1.4km/h 7mph /  11.3km/h 63% 0in /  0mm meteobridge W/m2
20:35 31.5 °F /  -0.3 °C 20.3 °F /  -6.5 °C 30.29in /  1025.6hPa NNW 2mph /  3.2km/h 5mph /  8km/h 63% 0in /  0mm meteobridge W/m2
20:40 31.1 °F /  -0.5 °C 19.9 °F /  -6.7 °C 30.29in /  1025.6hPa Calm   6mph /  9.7km/h 63% 0in /  0mm meteobridge W/m2
20:45 30.9 °F /  -0.6 °C 20.5 °F /  -6.4 °C 30.29in /  1025.6hPa Calm   2mph /  3.2km/h 65% 0in /  0mm meteobridge W/m2
20:50 30.7 °F /  -0.7 °C 19.9 °F /  -6.7 °C 30.29in /  1025.6hPa WNW 0.9mph /  1.4km/h 4mph /  6.4km/h 64% 0in /  0mm meteobridge W/m2
20:55 30.6 °F /  -0.8 °C 20.1 °F /  -6.6 °C 30.29in /  1025.6hPa WNW 2mph /  3.2km/h 4mph /  6.4km/h 65% 0in /  0mm meteobridge W/m2
21:00 30.4 °F /  -0.9 °C 19.9 °F /  -6.7 °C 30.29in /  1025.6hPa North 11mph /  17.7km/h 11mph /  17.7km/h 65% 0in /  0mm meteobridge W/m2
21:05 30.2 °F /  -1 °C 19.9 °F /  -6.7 °C 30.29in /  1025.6hPa NNW 2.9mph /  4.7km/h 5mph /  8km/h 65% 0in /  0mm meteobridge W/m2
21:10 30 °F /  -1.1 °C 20.1 °F /  -6.6 °C 30.29in /  1025.6hPa Calm   2mph /  3.2km/h 66% 0in /  0mm meteobridge W/m2
21:15 29.8 °F /  -1.2 °C 20.3 °F /  -6.5 °C 30.29in /  1025.6hPa Calm   5mph /  8km/h 67% 0in /  0mm meteobridge W/m2
21:20 29.7 °F /  -1.3 °C 20.5 °F /  -6.4 °C 30.29in /  1025.6hPa NNW 0.9mph /  1.4km/h 2mph /  3.2km/h 68% 0in /  0mm meteobridge W/m2
21:25 29.7 °F /  -1.3 °C 19.8 °F /  -6.8 °C 30.29in /  1025.6hPa NNW 4mph /  6.4km/h 7mph /  11.3km/h 66% 0in /  0mm meteobridge W/m2
21:30 29.5 °F /  -1.4 °C 19.2 °F /  -7.1 °C 30.29in /  1025.6hPa Calm   10mph /  16.1km/h 65% 0in /  0mm meteobridge W/m2
21:35 29.5 °F /  -1.4 °C 19.9 °F /  -6.7 °C 30.29in /  1025.6hPa Calm   8mph /  12.9km/h 67% 0in /  0mm meteobridge W/m2
21:40 29.5 °F /  -1.4 °C 19.2 °F /  -7.1 °C 30.29in /  1025.6hPa NW 0.9mph /  1.4km/h 6mph /  9.7km/h 65% 0in /  0mm meteobridge W/m2
21:45 29.3 °F /  -1.5 °C 19 °F /  -7.2 °C 30.29in /  1025.6hPa WSW 0.9mph /  1.4km/h 8mph /  12.9km/h 65% 0in /  0mm meteobridge W/m2
21:50 29.1 °F /  -1.6 °C 18.9 °F /  -7.3 °C 30.29in /  1025.6hPa NW 0.9mph /  1.4km/h 4mph /  6.4km/h 65% 0in /  0mm meteobridge W/m2
21:55 28.9 °F /  -1.7 °C 18.7 °F /  -7.4 °C 30.29in /  1025.6hPa Calm   2mph /  3.2km/h 65% 0in /  0mm meteobridge W/m2
22:00 28.9 °F /  -1.7 °C 18.3 °F /  -7.6 °C 30.29in /  1025.6hPa NNW 2mph /  3.2km/h 5mph /  8km/h 64% 0in /  0mm meteobridge W/m2
22:05 28.9 °F /  -1.7 °C 18 °F /  -7.8 °C 30.29in /  1025.6hPa NNW 2.9mph /  4.7km/h 6mph /  9.7km/h 63% 0in /  0mm meteobridge W/m2
22:10 28.8 °F /  -1.8 °C 18.1 °F /  -7.7 °C 30.30in /  1026hPa NNE 0.9mph /  1.4km/h 2mph /  3.2km/h 64% 0in /  0mm meteobridge W/m2
22:15 28.8 °F /  -1.8 °C 18.1 °F /  -7.7 °C 30.30in /  1026hPa Calm   1mph /  1.6km/h 64% 0in /  0mm meteobridge W/m2
22:20 28.6 °F /  -1.9 °C 18 °F /  -7.8 °C 30.30in /  1026hPa Calm   1mph /  1.6km/h 64% 0in /  0mm meteobridge W/m2
22:25 28.4 °F /  -2 °C 17.8 °F /  -7.9 °C 30.30in /  1026hPa Calm   6mph /  9.7km/h 64% 0in /  0mm meteobridge W/m2
22:30 28.4 °F /  -2 °C 17.8 °F /  -7.9 °C 30.30in /  1026hPa NNW 0.9mph /  1.4km/h 3mph /  4.8km/h 64% 0in /  0mm meteobridge W/m2
22:35 28.2 °F /  -2.1 °C 18 °F /  -7.8 °C 30.30in /  1026hPa NNW 4mph /  6.4km/h 4mph /  6.4km/h 65% 0in /  0mm meteobridge W/m2
22:40 28.2 °F /  -2.1 °C 18 °F /  -7.8 °C 30.30in /  1026hPa West 2.9mph /  4.7km/h 6mph /  9.7km/h 65% 0in /  0mm meteobridge W/m2
22:45 28 °F /  -2.2 °C 17.4 °F /  -8.1 °C 30.30in /  1026hPa NNW 2mph /  3.2km/h 3mph /  4.8km/h 64% 0in /  0mm meteobridge W/m2
22:50 27.9 °F /  -2.3 °C 17.2 °F /  -8.2 °C 30.30in /  1026hPa NNW 2.9mph /  4.7km/h 6mph /  9.7km/h 64% 0in /  0mm meteobridge W/m2
22:55 27.9 °F /  -2.3 °C 17.2 °F /  -8.2 °C 30.30in /  1026hPa Calm   2mph /  3.2km/h 64% 0in /  0mm meteobridge W/m2
23:00 27.7 °F /  -2.4 °C 16.7 °F /  -8.5 °C 30.30in /  1026hPa Calm   6mph /  9.7km/h 63% 0in /  0mm meteobridge W/m2
23:05 27.7 °F /  -2.4 °C 16.7 °F /  -8.5 °C 30.30in /  1026hPa WNW 0.9mph /  1.4km/h 8mph /  12.9km/h 63% 0in /  0mm meteobridge W/m2
23:10 27.3 °F /  -2.6 °C 16.3 °F /  -8.7 °C 30.30in /  1026hPa NW 2.9mph /  4.7km/h 7mph /  11.3km/h 63% 0in /  0mm meteobridge W/m2
23:15 27.3 °F /  -2.6 °C 16.3 °F /  -8.7 °C 30.31in /  1026.3hPa NNE 2mph /  3.2km/h 6mph /  9.7km/h 63% 0in /  0mm meteobridge W/m2
23:20 27.1 °F /  -2.7 °C 16.2 °F /  -8.8 °C 30.30in /  1026hPa North 2.9mph /  4.7km/h 9mph /  14.5km/h 63% 0in /  0mm meteobridge W/m2
23:25 27 °F /  -2.8 °C 16 °F /  -8.9 °C 30.31in /  1026.3hPa NNE 2mph /  3.2km/h 13mph /  20.9km/h 63% 0in /  0mm meteobridge W/m2
23:30 26.8 °F /  -2.9 °C 16.2 °F /  -8.8 °C 30.31in /  1026.3hPa North 2mph /  3.2km/h 13mph /  20.9km/h 64% 0in /  0mm meteobridge W/m2
23:35 26.8 °F /  -2.9 °C 16.2 °F /  -8.8 °C 30.31in /  1026.3hPa Calm   7mph /  11.3km/h 64% 0in /  0mm meteobridge W/m2
23:40 26.6 °F /  -3 °C 16.3 °F /  -8.7 °C 30.31in /  1026.3hPa West 2.9mph /  4.7km/h 7mph /  11.3km/h 65% 0in /  0mm meteobridge W/m2
23:45 26.4 °F /  -3.1 °C 16.3 °F /  -8.7 °C 30.32in /  1026.6hPa Calm   9mph /  14.5km/h 65% 0in /  0mm meteobridge W/m2
23:50 26.4 °F /  -3.1 °C 16.5 °F /  -8.6 °C 30.31in /  1026.3hPa Calm   1mph /  1.6km/h 66% 0in /  0mm meteobridge W/m2
23:55 26.2 °F /  -3.2 °C 16.5 °F /  -8.6 °C 30.32in /  1026.6hPa NNW 6.9mph /  11.1km/h 8mph /  12.9km/h 66% 0in /  0mm meteobridge W/m2
EllijayWeather
Compliments of Weather Underground - 2.5 mb